createdAt,value
2022-12-19T00:00:01.478Z,1006.1
2022-12-19T00:01:05.659Z,1006.1
2022-12-19T00:02:02.614Z,1006.1
2022-12-19T00:03:02.076Z,1006.1
2022-12-19T00:04:07.763Z,1006.1
2022-12-19T00:05:01.443Z,1006.1
2022-12-19T00:06:03.093Z,1006.2
2022-12-19T00:07:01.821Z,1006.2
2022-12-19T00:08:04.664Z,1006.2
2022-12-19T00:09:02.453Z,1006.2
2022-12-19T00:10:01.470Z,1006.2
2022-12-19T00:11:02.581Z,1006.2
2022-12-19T00:12:01.778Z,1006.2
2022-12-19T00:13:01.450Z,1006.2
2022-12-19T00:14:01.693Z,1006.2
2022-12-19T00:15:01.860Z,1006.2
2022-12-19T00:16:02.902Z,1006.2
2022-12-19T00:17:01.472Z,1006.2
2022-12-19T00:18:02.304Z,1006.2
2022-12-19T00:19:01.746Z,1006.2
2022-12-19T00:20:01.462Z,1006.2
2022-12-19T00:21:04.547Z,1006.2
2022-12-19T00:22:01.440Z,1006.3
2022-12-19T00:23:01.788Z,1006.3
2022-12-19T00:24:01.737Z,1006.3
2022-12-19T00:25:02.068Z,1006.3
2022-12-19T00:26:11.253Z,1006.3
2022-12-19T00:27:01.443Z,1006.3
2022-12-19T00:28:01.803Z,1006.2
2022-12-19T00:29:04.241Z,1006.3
2022-12-19T00:30:01.708Z,1006.3
2022-12-19T00:31:02.683Z,1006.2
2022-12-19T00:32:01.812Z,1006.2
2022-12-19T00:33:01.472Z,1006.2
2022-12-19T00:34:02.634Z,1006.3
2022-12-19T00:35:01.723Z,1006.2
2022-12-19T00:36:04.431Z,1006.3
2022-12-19T00:37:01.461Z,1006.2
2022-12-19T00:38:01.976Z,1006.3
2022-12-19T00:39:07.731Z,1006.3
2022-12-19T00:40:01.451Z,1006.3
2022-12-19T00:42:01.463Z,1006.3
2022-12-19T00:43:01.795Z,1006.3
2022-12-19T00:44:04.434Z,1006.3
2022-12-19T00:45:01.464Z,1006.3
2022-12-19T00:46:02.522Z,1006.3
2022-12-19T00:47:02.006Z,1006.3
2022-12-19T00:48:01.465Z,1006.2
2022-12-19T00:49:02.894Z,1006.3
2022-12-19T00:50:01.607Z,1006.3
2022-12-19T00:51:03.577Z,1006.3
2022-12-19T00:52:01.454Z,1006.3
2022-12-19T00:53:02.476Z,1006.3
2022-12-19T00:54:02.308Z,1006.3
2022-12-19T00:55:01.544Z,1006.3
2022-12-19T00:56:03.185Z,1006.3
2022-12-19T00:57:01.468Z,1006.3
2022-12-19T00:58:01.694Z,1006.3
2022-12-19T00:59:01.846Z,1006.4
2022-12-19T01:00:01.860Z,1006.3
2022-12-19T01:01:05.888Z,1006.3
2022-12-19T01:02:01.654Z,1006.3
2022-12-19T01:03:01.475Z,1006.3
2022-12-19T01:04:27.653Z,1006.3
2022-12-19T01:05:01.468Z,1006.3
2022-12-19T01:06:01.845Z,1006.3
2022-12-19T01:07:03.099Z,1006.3
2022-12-19T01:08:01.481Z,1006.3
2022-12-19T01:09:02.363Z,1006.3
2022-12-19T01:10:02.406Z,1006.3
2022-12-19T01:11:01.722Z,1006.3
2022-12-19T01:12:03.821Z,1006.3
2022-12-19T01:13:01.789Z,1006.3
2022-12-19T01:14:01.455Z,1006.3
2022-12-19T01:15:04.329Z,1006.3
2022-12-19T01:16:03.347Z,1006.3
2022-12-19T01:17:01.793Z,1006.3
2022-12-19T01:18:01.481Z,1006.3
2022-12-19T01:19:01.923Z,1006.3
2022-12-19T01:20:02.315Z,1006.3
2022-12-19T01:21:04.261Z,1006.3
2022-12-19T01:22:01.456Z,1006.3
2022-12-19T01:23:01.454Z,1006.3
2022-12-19T01:24:02.012Z,1006.3
2022-12-19T01:25:01.487Z,1006.3
2022-12-19T01:26:02.563Z,1006.3
2022-12-19T01:27:01.476Z,1006.3
2022-12-19T01:28:02.874Z,1006.3
2022-12-19T01:29:01.484Z,1006.4
2022-12-19T01:30:03.003Z,1006.3
2022-12-19T01:31:04.390Z,1006.3
2022-12-19T01:32:02.365Z,1006.4
2022-12-19T01:33:01.459Z,1006.4
2022-12-19T01:34:02.010Z,1006.4
2022-12-19T01:35:01.506Z,1006.4
2022-12-19T01:36:01.847Z,1006.4
2022-12-19T01:37:01.455Z,1006.4
2022-12-19T01:38:08.185Z,1006.4
2022-12-19T01:39:02.130Z,1006.4
2022-12-19T01:40:01.460Z,1006.4
2022-12-19T01:41:03.311Z,1006.4
2022-12-19T01:42:01.925Z,1006.4
2022-12-19T01:43:01.892Z,1006.4
2022-12-19T01:44:04.131Z,1006.3
2022-12-19T01:45:14.199Z,1006.3
2022-12-19T01:46:04.177Z,1006.3
2022-12-19T01:47:01.515Z,1006.3
2022-12-19T01:48:14.774Z,1006.3
2022-12-19T01:49:03.818Z,1006.3
2022-12-19T01:50:02.842Z,1006.3
2022-12-19T01:51:06.655Z,1006.3
2022-12-19T01:52:05.604Z,1006.3
2022-12-19T01:53:04.581Z,1006.2
2022-12-19T01:54:06.418Z,1006.3
2022-12-19T01:55:01.493Z,1006.3
2022-12-19T01:56:06.842Z,1006.3
2022-12-19T01:57:06.005Z,1006.3
2022-12-19T01:58:02.199Z,1006.3
2022-12-19T01:59:07.188Z,1006.3
2022-12-19T02:00:01.677Z,1006.4
2022-12-19T02:01:01.882Z,1006.4
2022-12-19T02:02:11.512Z,1006.4
2022-12-19T02:03:10.687Z,1006.4
2022-12-19T02:04:02.738Z,1006.4
2022-12-19T02:05:03.710Z,1006.4
2022-12-19T02:06:03.578Z,1006.4
2022-12-19T02:07:14.986Z,1006.4
2022-12-19T02:08:03.231Z,1006.4
2022-12-19T02:09:01.535Z,1006.4
2022-12-19T02:10:02.633Z,1006.4
2022-12-19T02:11:01.433Z,1006.3
2022-12-19T02:12:02.696Z,1006.4
2022-12-19T02:13:02.220Z,1006.4
2022-12-19T02:14:01.825Z,1006.4
2022-12-19T02:15:03.721Z,1006.4
2022-12-19T02:16:12.069Z,1006.4
2022-12-19T02:17:13.125Z,1006.4
2022-12-19T02:18:11.516Z,1006.5
2022-12-19T02:19:13.073Z,1006.5
2022-12-19T02:20:20.855Z,1006.4
2022-12-19T02:21:15.605Z,1006.4
2022-12-19T02:22:07.469Z,1006.4
2022-12-19T02:23:20.851Z,1006.4
2022-12-19T02:24:20.856Z,1006.4
2022-12-19T02:25:20.846Z,1006.4
2022-12-19T02:26:20.857Z,1006.5
2022-12-19T02:27:20.844Z,1006.4
2022-12-19T02:28:19.710Z,1006.5
2022-12-19T02:29:20.590Z,1006.5
2022-12-19T02:30:12.445Z,1006.5
2022-12-19T02:31:16.361Z,1006.5
2022-12-19T02:32:11.195Z,1006.5
2022-12-19T02:33:10.090Z,1006.5
2022-12-19T02:34:11.845Z,1006.5
2022-12-19T02:35:09.354Z,1006.5
2022-12-19T02:36:07.203Z,1006.5
2022-12-19T02:37:06.833Z,1006.5
2022-12-19T02:38:09.492Z,1006.5
2022-12-19T02:39:08.582Z,1006.6
2022-12-19T02:40:08.625Z,1006.5
2022-12-19T02:41:07.828Z,1006.6
2022-12-19T02:42:04.960Z,1006.5
2022-12-19T02:43:05.165Z,1006.6
2022-12-19T02:44:03.781Z,1006.6
2022-12-19T02:45:05.139Z,1006.6
2022-12-19T02:46:05.112Z,1006.7
2022-12-19T02:47:04.761Z,1006.7
2022-12-19T02:48:08.599Z,1006.7
2022-12-19T02:49:02.720Z,1006.7
2022-12-19T02:50:02.769Z,1006.7
2022-12-19T02:51:01.453Z,1006.6
2022-12-19T02:52:09.555Z,1006.7
2022-12-19T02:53:02.129Z,1006.6
2022-12-19T02:54:01.582Z,1006.7
2022-12-19T02:55:06.951Z,1006.7
2022-12-19T02:56:19.437Z,1006.7
2022-12-19T02:57:10.962Z,1006.7
2022-12-19T02:58:20.322Z,1006.7
2022-12-19T02:59:14.296Z,1006.7
2022-12-19T03:00:05.465Z,1006.8
2022-12-19T03:01:13.687Z,1006.7
2022-12-19T03:02:09.350Z,1006.8
2022-12-19T03:03:11.666Z,1006.8
2022-12-19T03:04:11.488Z,1006.8
2022-12-19T03:05:13.152Z,1006.8
2022-12-19T03:06:11.047Z,1006.8
2022-12-19T03:07:12.999Z,1006.8
2022-12-19T03:08:07.841Z,1006.8
2022-12-19T03:09:13.435Z,1006.7
2022-12-19T03:10:13.264Z,1006.8
2022-12-19T03:11:06.589Z,1006.8
2022-12-19T03:12:10.716Z,1006.8
2022-12-19T03:13:07.999Z,1006.8
2022-12-19T03:14:07.379Z,1006.8
2022-12-19T03:15:03.236Z,1006.8
2022-12-19T03:16:03.899Z,1006.8
2022-12-19T03:17:05.079Z,1006.9
2022-12-19T03:18:02.117Z,1006.8
2022-12-19T03:19:02.677Z,1006.9
2022-12-19T03:20:05.156Z,1006.9
2022-12-19T03:21:08.135Z,1006.9
2022-12-19T03:22:01.476Z,1006.9
2022-12-19T03:23:01.857Z,1006.9
2022-12-19T03:24:04.399Z,1007.0
2022-12-19T03:25:02.807Z,1007.0
2022-12-19T03:26:05.776Z,1006.9
2022-12-19T03:27:07.923Z,1007.0
2022-12-19T03:28:09.682Z,1007.0
2022-12-19T03:29:08.356Z,1007.0
2022-12-19T03:30:05.422Z,1007.0
2022-12-19T03:31:03.384Z,1007.1
2022-12-19T03:32:06.439Z,1007.1
2022-12-19T03:33:03.026Z,1007.1
2022-12-19T03:34:08.386Z,1007.1
2022-12-19T03:35:05.316Z,1007.1
2022-12-19T03:36:07.094Z,1007.1
2022-12-19T03:37:05.051Z,1007.1
2022-12-19T03:38:03.837Z,1007.1
2022-12-19T03:39:06.164Z,1007.1
2022-12-19T03:40:06.813Z,1007.1
2022-12-19T03:41:06.382Z,1007.1
2022-12-19T03:42:04.382Z,1007.2
2022-12-19T03:43:06.657Z,1007.1
2022-12-19T03:44:02.040Z,1007.1
2022-12-19T03:45:04.716Z,1007.2
2022-12-19T03:46:08.864Z,1007.2
2022-12-19T03:47:09.436Z,1007.2
2022-12-19T03:48:07.574Z,1007.2
2022-12-19T03:49:01.512Z,1007.2
2022-12-19T03:50:01.631Z,1007.2
2022-12-19T03:51:15.935Z,1007.2
2022-12-19T03:52:11.730Z,1007.2
2022-12-19T03:53:12.884Z,1007.2
2022-12-19T03:54:08.312Z,1007.2
2022-12-19T03:55:09.084Z,1007.2
2022-12-19T03:56:09.476Z,1007.2
2022-12-19T03:57:07.474Z,1007.2
2022-12-19T03:58:08.149Z,1007.2
2022-12-19T03:59:07.030Z,1007.2
2022-12-19T04:00:06.895Z,1007.2
2022-12-19T04:01:04.375Z,1007.3
2022-12-19T04:02:03.157Z,1007.2
2022-12-19T04:03:03.797Z,1007.3
2022-12-19T04:04:05.160Z,1007.3
2022-12-19T04:05:07.284Z,1007.4
2022-12-19T04:06:04.395Z,1007.3
2022-12-19T04:07:04.502Z,1007.4
2022-12-19T04:08:05.857Z,1007.4
2022-12-19T04:09:02.283Z,1007.4
2022-12-19T04:10:05.403Z,1007.4
2022-12-19T04:11:06.849Z,1007.4
2022-12-19T04:12:05.644Z,1007.4
2022-12-19T04:13:05.256Z,1007.4
2022-12-19T04:14:05.497Z,1007.4
2022-12-19T04:15:02.540Z,1007.4
2022-12-19T04:16:12.399Z,1007.4
2022-12-19T04:17:12.547Z,1007.4
2022-12-19T04:18:06.998Z,1007.5
2022-12-19T04:19:08.389Z,1007.5
2022-12-19T04:20:04.735Z,1007.5
2022-12-19T04:21:09.414Z,1007.5
2022-12-19T04:22:09.612Z,1007.4
2022-12-19T04:23:07.634Z,1007.5
2022-12-19T04:24:06.887Z,1007.5
2022-12-19T04:25:04.190Z,1007.4
2022-12-19T04:26:04.243Z,1007.4
2022-12-19T04:27:04.446Z,1007.5
2022-12-19T04:28:06.165Z,1007.4
2022-12-19T04:29:06.253Z,1007.4
2022-12-19T04:30:02.801Z,1007.4
2022-12-19T04:31:02.660Z,1007.5
2022-12-19T04:32:03.245Z,1007.4
2022-12-19T04:33:01.816Z,1007.5
2022-12-19T04:34:01.494Z,1007.5
2022-12-19T04:35:02.271Z,1007.5
2022-12-19T04:36:01.536Z,1007.5
2022-12-19T04:37:02.587Z,1007.5
2022-12-19T04:38:02.016Z,1007.5
2022-12-19T04:39:02.055Z,1007.5
2022-12-19T04:40:01.795Z,1007.5
2022-12-19T04:41:01.538Z,1007.4
2022-12-19T04:42:01.470Z,1007.5
2022-12-19T04:43:01.509Z,1007.4
2022-12-19T04:44:01.477Z,1007.4
2022-12-19T04:45:02.464Z,1007.5
2022-12-19T04:46:01.838Z,1007.4
2022-12-19T04:47:01.853Z,1007.4
2022-12-19T04:48:02.185Z,1007.5
2022-12-19T04:49:01.902Z,1007.5
2022-12-19T04:50:01.511Z,1007.5
2022-12-19T04:51:02.271Z,1007.5
2022-12-19T04:52:01.826Z,1007.5
2022-12-19T04:53:01.839Z,1007.5
2022-12-19T04:54:01.491Z,1007.5
2022-12-19T04:55:01.483Z,1007.5
2022-12-19T04:56:02.785Z,1007.5
2022-12-19T04:57:01.472Z,1007.5
2022-12-19T04:58:03.601Z,1007.5
2022-12-19T04:59:02.071Z,1007.5
2022-12-19T05:00:01.514Z,1007.5
2022-12-19T05:01:02.337Z,1007.5
2022-12-19T05:02:01.669Z,1007.6
2022-12-19T05:03:02.015Z,1007.6
2022-12-19T05:04:04.661Z,1007.5
2022-12-19T05:05:01.469Z,1007.6
2022-12-19T05:06:03.218Z,1007.6
2022-12-19T05:07:01.491Z,1007.5
2022-12-19T05:08:01.476Z,1007.6
2022-12-19T05:09:01.485Z,1007.5
2022-12-19T05:10:01.940Z,1007.5
2022-12-19T05:11:02.968Z,1007.6
2022-12-19T05:12:02.147Z,1007.6
2022-12-19T05:13:01.473Z,1007.6
2022-12-19T05:14:01.865Z,1007.6
2022-12-19T05:15:01.868Z,1007.6
2022-12-19T05:16:03.950Z,1007.5
2022-12-19T05:17:02.359Z,1007.6
2022-12-19T05:18:01.502Z,1007.6
2022-12-19T05:19:01.611Z,1007.6
2022-12-19T05:20:01.915Z,1007.6
2022-12-19T05:21:02.528Z,1007.6
2022-12-19T05:22:01.907Z,1007.6
2022-12-19T05:23:05.033Z,1007.6
2022-12-19T05:24:02.318Z,1007.6
2022-12-19T05:25:01.476Z,1007.6
2022-12-19T05:26:03.715Z,1007.6
2022-12-19T05:27:01.496Z,1007.6
2022-12-19T05:28:01.825Z,1007.6
2022-12-19T05:29:01.483Z,1007.6
2022-12-19T05:30:01.517Z,1007.5
2022-12-19T05:31:03.024Z,1007.5
2022-12-19T05:32:01.749Z,1007.6
2022-12-19T05:33:01.498Z,1007.6
2022-12-19T05:34:01.499Z,1007.6
2022-12-19T05:35:01.474Z,1007.5
2022-12-19T05:36:02.449Z,1007.6
2022-12-19T05:37:01.473Z,1007.6
2022-12-19T05:38:02.196Z,1007.6
2022-12-19T05:39:01.448Z,1007.6
2022-12-19T05:40:01.609Z,1007.6
2022-12-19T05:41:05.907Z,1007.7
2022-12-19T05:42:01.479Z,1007.6
2022-12-19T05:43:01.965Z,1007.6
2022-12-19T05:44:03.180Z,1007.7
2022-12-19T05:45:01.466Z,1007.6
2022-12-19T05:46:03.456Z,1007.6
2022-12-19T05:47:01.863Z,1007.6
2022-12-19T05:48:01.742Z,1007.6
2022-12-19T05:49:01.486Z,1007.6
2022-12-19T05:50:01.906Z,1007.6
2022-12-19T05:51:01.625Z,1007.6
2022-12-19T05:52:01.635Z,1007.6
2022-12-19T05:53:01.830Z,1007.6
2022-12-19T05:54:02.554Z,1007.6
2022-12-19T05:55:01.854Z,1007.6
2022-12-19T05:56:04.451Z,1007.6
2022-12-19T05:57:01.818Z,1007.6
2022-12-19T05:58:01.458Z,1007.6
2022-12-19T05:59:01.461Z,1007.6
2022-12-19T06:00:02.689Z,1007.7
2022-12-19T06:01:02.800Z,1007.7
2022-12-19T06:02:01.686Z,1007.7
2022-12-19T06:03:01.936Z,1007.7
2022-12-19T06:04:01.876Z,1007.7
2022-12-19T06:05:01.624Z,1007.7
2022-12-19T06:06:03.008Z,1007.8
2022-12-19T06:07:01.475Z,1007.8
2022-12-19T06:08:01.809Z,1007.8
2022-12-19T06:09:01.857Z,1007.8
2022-12-19T06:10:01.853Z,1007.8
2022-12-19T06:11:03.561Z,1007.9
2022-12-19T06:12:01.486Z,1007.8
2022-12-19T06:13:01.462Z,1007.8
2022-12-19T06:14:01.509Z,1007.8
2022-12-19T06:15:01.797Z,1007.8
2022-12-19T06:16:03.987Z,1007.8
2022-12-19T06:17:01.476Z,1007.8
2022-12-19T06:18:01.479Z,1007.8
2022-12-19T06:19:01.502Z,1007.8
2022-12-19T06:20:01.505Z,1007.9
2022-12-19T06:21:04.019Z,1007.9
2022-12-19T06:22:01.812Z,1007.9
2022-12-19T06:23:01.485Z,1007.9
2022-12-19T06:24:01.458Z,1007.9
2022-12-19T06:25:01.465Z,1007.9
2022-12-19T06:26:03.648Z,1007.9
2022-12-19T06:27:02.116Z,1008.0
2022-12-19T06:28:01.469Z,1008.0
2022-12-19T06:29:01.596Z,1008.0
2022-12-19T06:30:01.848Z,1008.0
2022-12-19T06:31:06.728Z,1008.0
2022-12-19T06:32:02.174Z,1008.1
2022-12-19T06:33:01.605Z,1008.0
2022-12-19T06:34:01.932Z,1008.1
2022-12-19T06:35:04.933Z,1008.1
2022-12-19T06:36:04.828Z,1008.2
2022-12-19T06:37:06.575Z,1008.2
2022-12-19T06:38:01.729Z,1008.2
2022-12-19T06:39:02.680Z,1008.2
2022-12-19T06:40:01.835Z,1008.2
2022-12-19T06:41:03.483Z,1008.2
2022-12-19T06:42:01.481Z,1008.3
2022-12-19T06:43:01.803Z,1008.3
2022-12-19T06:44:03.808Z,1008.3
2022-12-19T06:45:01.531Z,1008.3
2022-12-19T06:46:01.530Z,1008.4
2022-12-19T06:47:01.712Z,1008.4
2022-12-19T06:48:01.480Z,1008.4
2022-12-19T06:49:02.810Z,1008.4
2022-12-19T06:50:01.947Z,1008.4
2022-12-19T06:51:01.791Z,1008.4
2022-12-19T06:52:07.646Z,1008.4
2022-12-19T06:53:01.500Z,1008.5
2022-12-19T06:54:02.030Z,1008.5
2022-12-19T06:55:01.470Z,1008.5
2022-12-19T06:56:02.883Z,1008.5
2022-12-19T06:57:01.899Z,1008.5
2022-12-19T06:58:01.453Z,1008.5
2022-12-19T06:59:01.534Z,1008.5
2022-12-19T07:00:02.700Z,1008.6
2022-12-19T07:01:02.008Z,1008.6
2022-12-19T07:02:12.987Z,1008.6
2022-12-19T07:03:04.251Z,1008.5
2022-12-19T07:04:01.597Z,1008.5
2022-12-19T07:05:04.256Z,1008.5
2022-12-19T07:06:02.889Z,1008.5
2022-12-19T07:07:02.169Z,1008.5
2022-12-19T07:08:02.110Z,1008.5
2022-12-19T07:09:01.476Z,1008.5
2022-12-19T07:10:02.603Z,1008.6
2022-12-19T07:11:01.887Z,1008.6
2022-12-19T07:12:02.311Z,1008.5
2022-12-19T07:13:01.563Z,1008.5
2022-12-19T07:14:01.488Z,1008.5
2022-12-19T07:15:01.843Z,1008.6
2022-12-19T07:16:04.101Z,1008.5
2022-12-19T07:17:02.297Z,1008.5
2022-12-19T07:18:04.901Z,1008.6
2022-12-19T07:19:01.829Z,1008.5
2022-12-19T07:20:02.812Z,1008.5
2022-12-19T07:21:02.709Z,1008.6
2022-12-19T07:22:03.796Z,1008.5
2022-12-19T07:23:03.648Z,1008.5
2022-12-19T07:24:01.537Z,1008.5
2022-12-19T07:25:03.436Z,1008.5
2022-12-19T07:26:01.497Z,1008.5
2022-12-19T07:27:02.394Z,1008.5
2022-12-19T07:28:01.667Z,1008.5
2022-12-19T07:29:01.785Z,1008.5
2022-12-19T07:30:02.795Z,1008.5
2022-12-19T07:31:01.819Z,1008.5
2022-12-19T07:32:01.542Z,1008.6
2022-12-19T07:33:01.587Z,1008.6
2022-12-19T07:34:01.848Z,1008.6
2022-12-19T07:35:01.486Z,1008.6
2022-12-19T07:36:01.834Z,1008.6
2022-12-19T07:37:01.461Z,1008.6
2022-12-19T07:38:01.970Z,1008.6
2022-12-19T07:39:02.079Z,1008.7
2022-12-19T07:40:01.515Z,1008.7
2022-12-19T07:41:02.585Z,1008.6
2022-12-19T07:42:01.460Z,1008.6
2022-12-19T07:43:03.545Z,1008.7
2022-12-19T07:44:01.872Z,1008.7
2022-12-19T07:45:01.582Z,1008.7
2022-12-19T07:46:01.496Z,1008.7
2022-12-19T07:47:01.809Z,1008.7
2022-12-19T07:48:02.740Z,1008.8
2022-12-19T07:49:02.220Z,1008.8
2022-12-19T07:50:01.858Z,1008.7
2022-12-19T07:51:01.468Z,1008.7
2022-12-19T07:52:01.474Z,1008.7
2022-12-19T07:53:02.148Z,1008.7
2022-12-19T07:54:02.060Z,1008.7
2022-12-19T07:55:01.733Z,1008.8
2022-12-19T07:56:01.465Z,1008.8
2022-12-19T07:57:01.804Z,1008.8
2022-12-19T07:58:01.810Z,1008.8
2022-12-19T07:59:01.463Z,1008.8
2022-12-19T08:00:01.856Z,1008.8
2022-12-19T08:01:01.990Z,1008.8
2022-12-19T08:02:02.124Z,1008.8
2022-12-19T08:03:02.032Z,1008.8
2022-12-19T08:04:01.837Z,1008.8
2022-12-19T08:05:01.860Z,1008.7
2022-12-19T08:06:04.328Z,1008.8
2022-12-19T08:07:01.813Z,1008.8
2022-12-19T08:08:02.600Z,1008.8
2022-12-19T08:09:01.813Z,1008.8
2022-12-19T08:10:01.515Z,1008.8
2022-12-19T08:11:11.021Z,1008.8
2022-12-19T08:12:01.450Z,1008.8
2022-12-19T08:13:01.458Z,1008.8
2022-12-19T08:14:01.555Z,1008.8
2022-12-19T08:15:01.465Z,1008.9
2022-12-19T08:16:02.297Z,1008.9
2022-12-19T08:17:21.352Z,1008.9
2022-12-19T08:18:02.253Z,1008.9
2022-12-19T08:19:02.025Z,1008.9
2022-12-19T08:20:01.556Z,1009.0
2022-12-19T08:21:02.237Z,1009.0
2022-12-19T08:22:01.888Z,1008.9
2022-12-19T08:23:01.464Z,1008.9
2022-12-19T08:24:01.632Z,1008.9
2022-12-19T08:25:01.577Z,1009.0
2022-12-19T08:26:03.564Z,1008.9
2022-12-19T08:27:01.898Z,1008.9
2022-12-19T08:28:02.466Z,1009.0
2022-12-19T08:29:01.466Z,1009.0
2022-12-19T08:30:01.526Z,1009.0
2022-12-19T08:31:06.310Z,1009.0
2022-12-19T08:32:01.803Z,1009.1
2022-12-19T08:33:01.460Z,1009.0
2022-12-19T08:34:01.618Z,1009.1
2022-12-19T08:35:01.478Z,1009.1
2022-12-19T08:36:04.229Z,1009.1
2022-12-19T08:37:01.479Z,1009.1
2022-12-19T08:38:01.784Z,1009.1
2022-12-19T08:39:01.614Z,1009.1
2022-12-19T08:40:01.894Z,1009.1
2022-12-19T08:41:01.935Z,1009.1
2022-12-19T08:42:02.122Z,1009.1
2022-12-19T08:43:01.461Z,1009.1
2022-12-19T08:44:01.826Z,1009.2
2022-12-19T08:45:01.496Z,1009.2
2022-12-19T08:46:02.038Z,1009.3
2022-12-19T08:47:01.463Z,1009.2
2022-12-19T08:48:01.464Z,1009.2
2022-12-19T08:49:01.486Z,1009.2
2022-12-19T08:50:01.680Z,1009.2
2022-12-19T08:51:03.956Z,1009.2
2022-12-19T08:52:01.477Z,1009.2
2022-12-19T08:53:01.461Z,1009.2
2022-12-19T08:54:02.167Z,1009.2
2022-12-19T08:55:02.135Z,1009.2
2022-12-19T08:56:03.941Z,1009.2
2022-12-19T08:57:01.532Z,1009.2
2022-12-19T08:58:01.517Z,1009.2
2022-12-19T08:59:01.815Z,1009.2
2022-12-19T09:00:02.007Z,1009.2
2022-12-19T09:01:05.792Z,1009.2
2022-12-19T09:02:02.344Z,1009.2
2022-12-19T09:03:01.746Z,1009.2
2022-12-19T09:05:30.918Z,1009.2
2022-12-19T09:06:00.193Z,1009.2
2022-12-19T09:06:09.359Z,1009.2
2022-12-19T09:07:01.794Z,1009.2
2022-12-19T09:08:01.670Z,1009.2
2022-12-19T09:09:02.722Z,1009.2
2022-12-19T09:10:01.820Z,1009.2
2022-12-19T09:11:04.657Z,1009.2
2022-12-19T09:12:01.612Z,1009.3
2022-12-19T09:13:01.828Z,1009.2
2022-12-19T09:14:02.135Z,1009.3
2022-12-19T09:15:01.482Z,1009.3
2022-12-19T09:16:02.948Z,1009.3
2022-12-19T09:17:02.980Z,1009.3
2022-12-19T09:18:01.496Z,1009.3
2022-12-19T09:19:01.473Z,1009.3
2022-12-19T09:20:01.465Z,1009.3
2022-12-19T09:21:02.726Z,1009.3
2022-12-19T09:22:01.485Z,1009.3
2022-12-19T09:23:02.165Z,1009.3
2022-12-19T09:24:07.488Z,1009.3
2022-12-19T09:25:01.477Z,1009.3
2022-12-19T09:26:04.611Z,1009.4
2022-12-19T09:27:01.586Z,1009.4
2022-12-19T09:28:26.951Z,1009.4
2022-12-19T09:29:02.114Z,1009.4
2022-12-19T09:30:01.497Z,1009.5
2022-12-19T09:31:05.067Z,1009.4
2022-12-19T09:32:01.502Z,1009.4
2022-12-19T09:33:01.471Z,1009.5
2022-12-19T09:34:01.754Z,1009.5
2022-12-19T09:35:01.473Z,1009.5
2022-12-19T09:36:02.494Z,1009.4
2022-12-19T09:37:02.075Z,1009.5
2022-12-19T09:38:02.044Z,1009.5
2022-12-19T09:39:01.477Z,1009.5
2022-12-19T09:40:01.499Z,1009.5
2022-12-19T09:41:20.895Z,1009.5
2022-12-19T09:42:14.184Z,1009.5
2022-12-19T09:43:10.651Z,1009.5
2022-12-19T09:44:11.072Z,1009.5
2022-12-19T09:45:25.923Z,1009.5
2022-12-19T09:46:10.946Z,1009.5
2022-12-19T09:47:04.520Z,1009.5
2022-12-19T09:48:02.628Z,1009.5
2022-12-19T09:49:01.896Z,1009.5
2022-12-19T09:50:11.583Z,1009.4
2022-12-19T09:51:10.114Z,1009.5
2022-12-19T09:52:07.119Z,1009.4
2022-12-19T09:53:05.569Z,1009.4
2022-12-19T09:54:09.190Z,1009.5
2022-12-19T09:55:05.524Z,1009.5
2022-12-19T09:56:02.254Z,1009.5
2022-12-19T09:57:05.541Z,1009.5
2022-12-19T09:58:06.967Z,1009.5
2022-12-19T09:59:11.169Z,1009.5
2022-12-19T10:00:05.971Z,1009.5
2022-12-19T10:01:09.876Z,1009.6
2022-12-19T10:02:17.436Z,1009.6
2022-12-19T10:03:07.235Z,1009.6
2022-12-19T10:04:08.855Z,1009.7
2022-12-19T10:05:44.858Z,1009.7
2022-12-19T10:07:11.070Z,1009.7
2022-12-19T10:07:11.686Z,1009.7
2022-12-19T10:08:09.632Z,1009.7
2022-12-19T10:10:19.091Z,1009.7
2022-12-19T10:12:33.447Z,1009.7
2022-12-19T10:12:39.852Z,1009.7
2022-12-19T10:12:45.128Z,1009.7
2022-12-19T10:13:16.367Z,1009.7
2022-12-19T10:14:15.471Z,1009.7
2022-12-19T10:15:07.563Z,1009.7
2022-12-19T10:16:10.519Z,1009.8
2022-12-19T10:17:24.129Z,1009.8
2022-12-19T10:18:17.011Z,1009.8
2022-12-19T10:19:05.424Z,1009.8
2022-12-19T10:20:15.055Z,1009.8
2022-12-19T10:21:08.218Z,1009.8
2022-12-19T10:22:18.970Z,1009.8
2022-12-19T10:23:18.139Z,1009.8
2022-12-19T10:24:19.140Z,1009.8
2022-12-19T10:25:15.447Z,1009.8
2022-12-19T10:26:09.847Z,1009.8
2022-12-19T10:27:12.468Z,1009.8
2022-12-19T10:28:11.800Z,1009.8
2022-12-19T10:29:18.080Z,1009.8
2022-12-19T10:30:12.127Z,1009.9
2022-12-19T10:31:17.196Z,1009.9
2022-12-19T10:32:09.904Z,1009.9
2022-12-19T10:33:19.775Z,1009.9
2022-12-19T10:34:08.052Z,1010.0
2022-12-19T10:35:11.499Z,1009.9
2022-12-19T10:36:09.234Z,1010.0
2022-12-19T10:37:26.538Z,1010.0
2022-12-19T10:38:15.952Z,1009.9
2022-12-19T10:39:08.681Z,1010.0
2022-12-19T10:40:15.628Z,1009.9
2022-12-19T10:41:14.650Z,1010.0
2022-12-19T10:42:12.328Z,1010.0
2022-12-19T10:43:11.619Z,1009.9
2022-12-19T10:44:03.707Z,1009.9
2022-12-19T10:45:10.334Z,1009.9
2022-12-19T10:46:13.028Z,1010.0
2022-12-19T10:47:01.501Z,1010.0
2022-12-19T10:48:04.343Z,1010.0
2022-12-19T10:49:10.319Z,1010.0
2022-12-19T10:50:07.503Z,1010.0
2022-12-19T10:51:06.061Z,1010.0
2022-12-19T10:52:05.722Z,1010.0
2022-12-19T10:53:08.041Z,1010.0
2022-12-19T10:54:01.564Z,1010.0
2022-12-19T10:55:01.520Z,1010.0
2022-12-19T10:56:12.257Z,1010.0
2022-12-19T10:57:20.890Z,1010.0
2022-12-19T10:58:16.367Z,1010.0
2022-12-19T10:59:03.094Z,1010.0
2022-12-19T11:00:05.500Z,1010.0
2022-12-19T11:01:09.716Z,1010.0
2022-12-19T11:02:21.047Z,1010.0
2022-12-19T11:03:12.130Z,1010.0
2022-12-19T11:04:14.209Z,1010.0
2022-12-19T11:05:03.185Z,1010.0
2022-12-19T11:06:03.065Z,1010.0
2022-12-19T11:07:05.176Z,1010.0
2022-12-19T11:08:12.943Z,1010.0
2022-12-19T11:09:16.760Z,1010.0
2022-12-19T11:10:52.304Z,1010.0
2022-12-19T11:14:46.522Z,1010.0
2022-12-19T11:15:33.049Z,1010.0
2022-12-19T11:17:47.736Z,1009.9
2022-12-19T11:18:07.160Z,1009.9
2022-12-19T11:18:26.836Z,1009.9
2022-12-19T11:19:30.234Z,1009.9
2022-12-19T11:23:45.327Z,1010.0
2022-12-19T11:25:44.877Z,1009.9
2022-12-19T11:29:16.566Z,1009.9
2022-12-19T11:29:26.733Z,1010.0
2022-12-19T11:29:40.503Z,1010.0
2022-12-19T11:29:40.714Z,1010.0
2022-12-19T11:29:43.774Z,1010.0
2022-12-19T11:29:54.649Z,1010.1
2022-12-19T11:30:35.943Z,1010.0
2022-12-19T11:30:37.985Z,1010.1
2022-12-19T11:30:44.326Z,1010.0
2022-12-19T11:30:46.942Z,1010.0
2022-12-19T11:30:48.851Z,1010.0
2022-12-19T11:32:01.665Z,1010.1
2022-12-19T11:32:14.200Z,1010.1
2022-12-19T11:32:39.616Z,1010.1
2022-12-19T11:33:13.213Z,1010.1
2022-12-19T11:34:04.282Z,1010.1
2022-12-19T11:35:12.706Z,1010.2
2022-12-19T11:36:04.080Z,1010.2
2022-12-19T11:37:16.056Z,1010.2
2022-12-19T11:38:04.828Z,1010.2
2022-12-19T11:39:04.238Z,1010.2
2022-12-19T11:40:05.597Z,1010.2
2022-12-19T11:41:11.958Z,1010.1
2022-12-19T11:42:09.478Z,1010.1
2022-12-19T11:43:43.194Z,1010.1
2022-12-19T11:44:07.701Z,1010.1
2022-12-19T11:45:11.160Z,1010.1
2022-12-19T11:46:08.335Z,1010.1
2022-12-19T11:47:12.963Z,1010.1
2022-12-19T11:48:09.598Z,1010.1
2022-12-19T11:49:10.232Z,1010.1
2022-12-19T11:50:09.068Z,1010.1
2022-12-19T11:51:11.857Z,1010.1
2022-12-19T11:52:36.908Z,1010.0
2022-12-19T11:53:18.859Z,1010.0
2022-12-19T11:54:11.339Z,1010.0
2022-12-19T11:55:07.141Z,1010.0
2022-12-19T11:56:16.127Z,1010.0
2022-12-19T11:57:01.808Z,1010.0
2022-12-19T11:58:01.813Z,1010.0
2022-12-19T11:59:11.660Z,1010.0
2022-12-19T12:00:05.227Z,1010.0
2022-12-19T12:01:11.778Z,1010.0
2022-12-19T12:02:17.700Z,1010.0
2022-12-19T12:03:21.054Z,1010.1
2022-12-19T12:04:20.981Z,1010.0
2022-12-19T12:05:20.884Z,1010.1
2022-12-19T12:06:11.018Z,1010.1
2022-12-19T12:07:17.984Z,1010.1
2022-12-19T12:10:53.823Z,1010.1
2022-12-19T12:13:12.319Z,1010.2
2022-12-19T12:13:23.106Z,1010.1
2022-12-19T12:16:44.124Z,1010.1
2022-12-19T12:20:06.129Z,1010.1
2022-12-19T12:22:06.823Z,1010.1
2022-12-19T12:22:40.819Z,1010.1
2022-12-19T12:24:16.606Z,1010.1
2022-12-19T12:28:19.540Z,1010.1
2022-12-19T12:31:01.000Z,1010.1
2022-12-19T12:31:08.218Z,1010.1
2022-12-19T12:31:09.001Z,1010.1
2022-12-19T12:31:11.598Z,1010.1
2022-12-19T12:31:22.237Z,1010.1
2022-12-19T12:31:25.830Z,1010.1
2022-12-19T12:31:45.500Z,1010.0
2022-12-19T12:31:46.439Z,1009.9
2022-12-19T12:31:49.076Z,1010.1
2022-12-19T12:31:50.783Z,1010.0
2022-12-19T12:31:52.362Z,1010.1
2022-12-19T12:32:05.063Z,1010.0
2022-12-19T12:32:05.067Z,1010.0